Time;durP1;ratioP1;P1;durP2;ratioP2;P2;SDS_P1;SDS_P2;PMS_P1;PMS_P2;Temp;Humidity;BMP_temperature;BMP_pressure;BME280_temperature;BME280_humidity;BME280_pressure;Samples;Min_cycle;Max_cycle;Signal;HPM_P1;HPM_P2
2022/05/23 00:01:16;;;;;;;0.68;0.68;;;;;;;2.46;59.19;98128.28;4993946;28;20561;-90
2022/05/23 00:03:43;;;;;;;0.60;0.60;;;;;;;2.46;59.30;98127.47;4994762;28;20068;-91
2022/05/23 00:06:16;;;;;;;0.60;0.60;;;;;;;2.36;59.82;98128.75;4994351;28;20104;-90
2022/05/23 00:08:44;;;;;;;0.60;0.60;;;;;;;2.26;59.97;98127.59;4995589;28;20464;-91
2022/05/23 00:11:11;;;;;;;0.68;0.68;;;;;;;2.23;60.33;98126.16;5012522;28;20536;-89
2022/05/23 00:13:38;;;;;;;0.70;0.70;;;;;;;2.19;60.80;98126.78;5012649;28;20398;-90
2022/05/23 00:16:06;;;;;;;0.55;0.55;;;;;;;2.11;60.90;98125.19;5014251;28;20045;-90
2022/05/23 00:18:33;;;;;;;0.70;0.70;;;;;;;2.12;61.08;98127.63;5027876;28;20049;-90
2022/05/23 00:21:00;;;;;;;0.70;0.70;;;;;;;2.12;61.33;98130.28;5010659;28;20057;-89
2022/05/23 00:23:27;;;;;;;0.55;0.55;;;;;;;2.09;61.51;98130.72;5040783;28;20050;-88
2022/05/23 00:25:56;;;;;;;0.60;0.60;;;;;;;2.02;61.68;98135.25;4994574;28;20085;-91
2022/05/23 00:28:23;;;;;;;0.70;0.70;;;;;;;1.93;61.88;98126.69;4994181;28;20076;-91
2022/05/23 00:30:51;;;;;;;0.60;0.60;;;;;;;2.04;61.88;98141.19;5011756;28;20405;-90
2022/05/23 00:36:09;;;;;;;0.60;0.60;;;;;;;2.06;61.73;98140.97;5012549;28;20053;-91
2022/05/23 00:38:36;;;;;;;0.65;0.65;;;;;;;2.00;61.90;98136.47;4994652;28;20057;-90
2022/05/23 00:44:00;;;;;;;0.60;0.60;;;;;;;1.88;62.42;98139.00;4997790;28;20100;-90
2022/05/23 00:46:27;;;;;;;0.60;0.60;;;;;;;1.86;62.68;98143.69;4979433;28;20058;-90
2022/05/23 00:48:59;;;;;;;0.70;0.70;;;;;;;1.86;62.72;98146.38;4994785;28;20133;-89
2022/05/23 00:51:26;;;;;;;0.70;0.70;;;;;;;1.73;62.82;98137.38;5013769;28;20104;-89
2022/05/23 00:53:58;;;;;;;0.70;0.70;;;;;;;1.72;63.09;98146.41;4997852;28;20073;-90
2022/05/23 00:56:30;;;;;;;0.70;0.70;;;;;;;1.76;63.03;98153.97;5015923;28;20073;-90
2022/05/23 00:59:01;;;;;;;0.60;0.60;;;;;;;1.73;63.01;98153.34;5015802;28;20141;-90
2022/05/23 01:01:30;;;;;;;0.60;0.60;;;;;;;1.64;63.06;98138.63;4998155;28;20046;-90
2022/05/23 01:03:57;;;;;;;0.60;0.60;;;;;;;1.74;62.84;98143.53;4981795;28;20046;-90
2022/05/23 01:06:26;;;;;;;0.80;0.80;;;;;;;1.77;62.94;98155.59;4997684;28;20053;-90
2022/05/23 01:08:55;;;;;;;0.60;0.60;;;;;;;1.71;62.90;98151.94;4997706;28;20241;-90
2022/05/23 01:11:23;;;;;;;0.65;0.65;;;;;;;1.67;63.46;98153.34;4997846;28;20477;-89
2022/05/23 01:13:53;;;;;;;0.60;0.60;;;;;;;1.66;63.51;98163.19;4981941;28;20052;-91
2022/05/23 01:16:22;;;;;;;0.80;0.80;;;;;;;1.60;63.82;98156.03;4998724;28;20057;-90
2022/05/23 01:18:51;;;;;;;0.70;0.70;;;;;;;1.61;63.63;98154.19;4997553;28;20046;-90
2022/05/23 01:21:34;;;;;;;0.70;0.70;;;;;;;1.77;63.58;98156.41;4998095;28;20299;-90
2022/05/23 01:24:12;;;;;;;0.63;0.63;;;;;;;1.61;63.45;98148.88;4984595;28;21038;-91
2022/05/23 01:26:44;;;;;;;0.70;0.70;;;;;;;1.67;63.68;98162.19;5001445;28;20050;-90
2022/05/23 01:29:24;;;;;;;0.80;0.80;;;;;;;1.55;63.78;98147.88;4988174;28;20065;-90
2022/05/23 01:31:57;;;;;;;0.80;0.80;;;;;;;1.58;64.01;98152.78;4997642;28;20049;-90
2022/05/23 01:34:33;;;;;;;0.63;0.63;;;;;;;1.62;63.88;98161.97;5000037;28;20097;-90
2022/05/23 01:37:07;;;;;;;0.60;0.60;;;;;;;1.68;63.56;98163.81;4997696;28;20046;-90
2022/05/23 01:39:46;;;;;;;0.50;0.50;;;;;;;1.68;63.56;98160.31;4982531;28;20145;-91
2022/05/23 01:42:13;;;;;;;0.70;0.70;;;;;;;1.61;63.71;98170.16;4997239;28;20064;-91
2022/05/23 01:44:40;;;;;;;0.70;0.70;;;;;;;1.50;64.13;98158.31;4996961;28;20046;-90
2022/05/23 01:47:17;;;;;;;0.70;0.70;;;;;;;1.55;64.19;98173.66;4997242;28;20417;-91
2022/05/23 01:50:06;;;;;;;0.70;0.70;;;;;;;1.47;64.03;98167.53;5014167;28;20128;-90
2022/05/23 01:52:37;;;;;;;0.80;0.80;;;;;;;1.49;63.99;98162.81;4996599;28;20050;-91
2022/05/23 01:55:13;;;;;;;0.60;0.60;;;;;;;1.51;64.26;98173.22;4996857;28;20054;-91
2022/05/23 01:57:55;;;;;;;0.60;0.60;;;;;;;1.47;64.06;98169.38;4996720;28;20062;-90
2022/05/23 02:03:09;;;;;;;0.60;0.60;;;;;;;1.46;64.08;98173.84;4995561;28;20155;-91
2022/05/23 02:05:37;;;;;;;0.70;0.70;;;;;;;1.49;64.28;98176.13;5030704;28;20513;-90
2022/05/23 02:08:04;;;;;;;0.60;0.60;;;;;;;1.51;64.33;98178.56;4982130;28;20041;-89
2022/05/23 02:10:32;;;;;;;0.60;0.60;;;;;;;1.55;63.96;98177.13;4996559;28;20045;-91
2022/05/23 02:13:03;;;;;;;0.60;0.60;;;;;;;1.52;63.90;98166.91;4979908;28;20062;-90
2022/05/23 02:15:32;;;;;;;0.50;0.50;;;;;;;1.63;63.84;98168.91;5029208;28;20145;-91
2022/05/23 02:18:20;;;;;;;0.50;0.50;;;;;;;1.70;63.62;98180.38;4999334;28;20080;-91
2022/05/23 02:20:49;;;;;;;0.65;0.65;;;;;;;1.65;63.53;98172.19;4996299;28;20491;-92
2022/05/23 02:23:42;;;;;;;0.77;0.77;;;;;;;1.71;63.36;98175.88;4996344;28;20052;-91
2022/05/23 02:26:09;;;;;;;0.60;0.60;;;;;;;1.76;63.39;98185.88;4996906;28;20050;-91
2022/05/23 02:28:56;;;;;;;0.70;0.70;;;;;;;1.80;63.48;98179.09;5000875;28;20072;-90
2022/05/23 02:31:28;;;;;;;0.63;0.63;;;;;;;1.77;63.03;98176.88;5005168;28;20109;-91
2022/05/23 02:34:13;;;;;;;0.70;0.70;;;;;;;1.79;62.73;98178.28;5038133;28;20109;-87
2022/05/23 02:36:48;;;;;;;0.90;0.90;;;;;;;1.82;62.76;98171.75;5048993;28;20073;-90
2022/05/23 02:39:21;;;;;;;0.65;0.65;;;;;;;1.90;62.53;98171.50;4984521;28;20508;-90
2022/05/23 02:41:50;;;;;;;0.70;0.70;;;;;;;1.93;62.71;98168.47;5031458;28;20049;-90
2022/05/23 02:44:21;;;;;;;0.70;0.70;;;;;;;1.96;62.72;98168.03;5034448;28;20080;-90
2022/05/23 02:46:48;;;;;;;0.65;0.65;;;;;;;2.06;62.40;98179.06;5016788;28;20080;-91
2022/05/23 02:49:18;;;;;;;0.60;0.60;;;;;;;2.09;62.41;98181.28;4984524;28;20453;-90
2022/05/23 02:51:48;;;;;;;0.70;0.70;;;;;;;2.10;62.47;98174.13;5004205;28;20042;-90
2022/05/23 02:54:16;;;;;;;0.73;0.73;;;;;;;2.29;62.11;98185.72;4980086;28;20100;-91
2022/05/23 02:56:51;;;;;;;0.68;0.68;;;;;;;2.36;61.71;98182.00;4979968;28;20050;-91
2022/05/23 02:59:22;;;;;;;0.70;0.70;;;;;;;2.39;61.50;98189.56;4998652;28;20052;-90
2022/05/23 03:04:44;;;;;;;0.70;0.70;;;;;;;2.44;61.27;98190.78;5013750;28;20049;-90
2022/05/23 03:07:14;;;;;;;0.70;0.70;;;;;;;2.47;60.76;98188.50;5012796;28;20583;-90
2022/05/23 03:09:53;;;;;;;0.60;0.60;;;;;;;2.49;60.59;98186.47;4995650;28;20057;-91
2022/05/23 03:12:20;;;;;;;0.70;0.70;;;;;;;2.56;60.30;98195.25;5021846;28;20105;-91
2022/05/23 03:14:47;;;;;;;0.65;0.65;;;;;;;2.65;60.11;98198.47;5021576;28;20045;-90
2022/05/23 03:17:14;;;;;;;0.70;0.70;;;;;;;2.72;59.88;98193.91;4991208;28;20054;-92
2022/05/23 03:19:44;;;;;;;0.60;0.60;;;;;;;2.78;58.94;98197.56;4995255;28;20058;-91
2022/05/23 03:27:47;;;;;;;0.52;0.52;;;;;;;3.10;57.74;98200.25;4995193;28;20517;-89
2022/05/23 03:30:20;;;;;;;0.75;0.75;;;;;;;3.14;57.36;98196.09;4980340;28;20084;-90
2022/05/23 03:32:58;;;;;;;0.60;0.60;;;;;;;3.31;56.65;98202.53;5012797;28;20056;-91
2022/05/23 03:35:26;;;;;;;0.63;0.63;;;;;;;3.38;56.25;98200.63;5014282;28;20042;-91
2022/05/23 03:37:54;;;;;;;0.65;0.65;;;;;;;3.52;55.77;98197.84;5015007;28;20045;-92
2022/05/23 03:40:21;;;;;;;0.70;0.70;;;;;;;3.54;55.44;98195.78;5030439;28;20050;-89
2022/05/23 03:42:58;;;;;;;0.43;0.43;;;;;;;3.56;55.93;98199.06;4981533;28;20425;-90
2022/05/23 03:45:26;;;;;;;0.60;0.60;;;;;;;3.61;55.60;98196.56;5013221;28;20052;-90
2022/05/23 03:47:55;;;;;;;0.70;0.70;;;;;;;3.73;55.53;98205.47;5014381;28;20084;-91
2022/05/23 03:50:24;;;;;;;0.70;0.70;;;;;;;3.80;55.24;98200.06;4996560;28;20045;-92
2022/05/23 03:52:56;;;;;;;0.60;0.60;;;;;;;3.89;54.77;98204.88;4995996;28;20497;-90
2022/05/23 03:55:27;;;;;;;0.70;0.70;;;;;;;4.06;54.79;98204.31;4997664;28;20553;-90
2022/05/23 03:58:14;;;;;;;0.55;0.55;;;;;;;4.19;55.02;98195.34;5013440;28;20081;-90
2022/05/23 04:00:48;;;;;;;0.70;0.70;;;;;;;4.34;53.53;98196.59;4995635;28;20056;-91
2022/05/23 04:03:17;;;;;;;0.70;0.70;;;;;;;4.45;53.60;98199.56;5011749;28;20072;-90
2022/05/23 04:05:44;;;;;;;0.68;0.68;;;;;;;4.65;53.04;98196.63;4982095;28;20076;-89
2022/05/23 04:08:19;;;;;;;0.60;0.60;;;;;;;4.70;51.96;98194.91;5003995;28;20048;-89
2022/05/23 04:10:51;;;;;;;0.70;0.70;;;;;;;4.68;51.52;98191.63;5004469;28;20050;-90
2022/05/23 04:13:19;;;;;;;0.60;0.60;;;;;;;4.66;51.58;98190.22;5002682;28;20103;-91
2022/05/23 04:15:46;;;;;;;0.60;0.60;;;;;;;4.74;51.64;98190.75;4994499;28;20050;-90
2022/05/23 04:18:14;;;;;;;0.60;0.60;;;;;;;4.86;51.30;98197.97;4996848;28;20068;-88
2022/05/23 04:20:41;;;;;;;0.60;0.60;;;;;;;4.76;50.42;98186.00;5007626;28;20053;-90
2022/05/23 04:23:19;;;;;;;0.60;0.60;;;;;;;4.77;50.66;98184.94;5001142;28;20114;-89
2022/05/23 04:25:48;;;;;;;0.70;0.70;;;;;;;4.84;50.65;98192.88;4999027;28;20061;-90
2022/05/23 04:28:19;;;;;;;0.70;0.70;;;;;;;4.94;50.53;98181.66;4997137;28;20076;-88
2022/05/23 04:31:03;;;;;;;0.70;0.70;;;;;;;4.98;50.31;98193.50;5015229;28;20064;-86
2022/05/23 04:36:50;;;;;;;0.60;0.60;;;;;;;5.09;49.95;98187.38;4883879;28;10001018;-84
2022/05/23 04:39:27;;;;;;;0.60;0.60;;;;;;;5.11;49.79;98179.91;4989034;28;20938;-85
2022/05/23 04:41:55;;;;;;;0.70;0.70;;;;;;;5.25;49.70;98179.72;5008082;28;20058;-91
2022/05/23 04:44:23;;;;;;;0.60;0.60;;;;;;;5.26;49.63;98178.69;4985849;28;20574;-86
2022/05/23 04:49:41;;;;;;;0.70;0.70;;;;;;;5.22;49.50;98175.66;4996242;28;20050;-86
2022/05/23 04:52:28;;;;;;;0.70;0.70;;;;;;;5.15;49.70;98164.25;5015350;28;20252;-91
2022/05/23 04:54:55;;;;;;;0.70;0.70;;;;;;;5.41;49.42;98169.16;4981872;28;20120;-89
2022/05/23 04:57:29;;;;;;;0.70;0.70;;;;;;;5.37;49.24;98172.53;4978792;28;20521;-89
2022/05/23 04:59:56;;;;;;;0.70;0.70;;;;;;;5.36;49.41;98176.25;4997791;28;20149;-85
2022/05/23 05:02:30;;;;;;;0.70;0.70;;;;;;;5.44;49.13;98167.88;4986257;28;20052;-87
2022/05/23 05:04:58;;;;;;;0.50;0.50;;;;;;;5.42;49.07;98164.63;4980388;28;20046;-88
2022/05/23 05:07:25;;;;;;;0.60;0.60;;;;;;;5.60;49.19;98169.06;5013266;28;20059;-87
2022/05/23 05:09:57;;;;;;;0.63;0.63;;;;;;;5.69;49.36;98172.19;4981218;28;20163;-87
2022/05/23 05:12:24;;;;;;;0.60;0.60;;;;;;;5.81;48.84;98168.47;4983723;28;20049;-90
2022/05/23 05:14:52;;;;;;;0.70;0.70;;;;;;;5.89;48.79;98151.22;4965680;28;20054;-88
2022/05/23 05:17:19;;;;;;;0.60;0.60;;;;;;;6.08;48.71;98168.81;4996237;28;20046;-88
2022/05/23 05:19:47;;;;;;;0.60;0.60;;;;;;;6.20;48.14;98167.97;5009790;28;20049;-87
2022/05/23 05:22:47;;;;;;;0.60;0.60;;;;;;;6.38;47.74;98161.63;4961851;28;20060;-88
2022/05/23 05:25:34;;;;;;;0.60;0.60;;;;;;;6.49;47.82;98158.09;5031895;28;20073;-85
2022/05/23 05:28:07;;;;;;;0.65;0.65;;;;;;;6.56;47.54;98147.22;5014479;28;20072;-86
2022/05/23 05:30:42;;;;;;;0.70;0.70;;;;;;;6.95;47.15;98156.28;4995207;28;20115;-85
2022/05/23 05:33:15;;;;;;;0.60;0.60;;;;;;;6.82;45.91;98146.66;5015641;28;20115;-85
2022/05/23 05:35:55;;;;;;;0.70;0.70;;;;;;;6.80;45.92;98156.81;5001349;28;20054;-85
2022/05/23 05:38:41;;;;;;;0.70;0.70;;;;;;;6.81;46.04;98149.56;4997510;28;20062;-86
2022/05/23 05:41:17;;;;;;;0.60;0.60;;;;;;;7.00;45.79;98150.19;4979764;28;20060;-85
2022/05/23 05:43:47;;;;;;;0.60;0.60;;;;;;;7.27;45.10;98148.50;4974516;28;20057;-86
2022/05/23 05:46:17;;;;;;;0.60;0.60;;;;;;;7.45;45.07;98139.38;4987400;28;20509;-87
2022/05/23 05:48:55;;;;;;;0.60;0.60;;;;;;;7.43;44.56;98143.38;4969474;28;20042;-85
2022/05/23 05:51:24;;;;;;;0.65;0.65;;;;;;;6.93;44.16;98120.81;5019327;28;20053;-86
2022/05/23 05:54:18;;;;;;;0.70;0.70;;;;;;;7.07;44.89;98138.25;4986137;28;20142;-86
2022/05/23 05:56:52;;;;;;;0.63;0.63;;;;;;;7.15;43.86;98139.72;4971618;28;20070;-87
2022/05/23 05:59:20;;;;;;;0.70;0.70;;;;;;;7.41;44.14;98127.50;5006811;28;20140;-86
2022/05/23 06:01:47;;;;;;;0.60;0.60;;;;;;;7.49;42.91;98124.38;4974756;28;20678;-85
2022/05/23 06:04:18;;;;;;;0.68;0.68;;;;;;;7.68;42.87;98126.81;5004424;28;20117;-85
2022/05/23 06:12:47;;;;;;;0.50;0.50;;;;;;;8.10;41.64;98132.50;4974711;28;20078;-87
2022/05/23 06:15:34;;;;;;;0.60;0.60;;;;;;;8.09;41.48;98122.78;4985299;28;20481;-87
2022/05/23 06:18:01;;;;;;;0.70;0.70;;;;;;;8.20;40.89;98123.72;4976159;28;20146;-85
2022/05/23 06:20:29;;;;;;;0.68;0.68;;;;;;;8.21;40.66;98122.69;4983082;28;20042;-88
2022/05/23 06:22:58;;;;;;;0.60;0.60;;;;;;;8.31;40.55;98097.81;4992018;28;20099;-85
2022/05/23 06:25:25;;;;;;;0.60;0.60;;;;;;;8.38;40.36;98109.16;4976782;28;20491;-85
2022/05/23 06:27:58;;;;;;;0.70;0.70;;;;;;;8.30;40.13;98117.66;5025633;28;20046;-86
2022/05/23 06:30:26;;;;;;;0.60;0.60;;;;;;;8.14;40.22;98106.72;4993282;28;20128;-85
2022/05/23 06:32:53;;;;;;;0.55;0.55;;;;;;;8.14;41.13;98103.25;5012270;28;20053;-86
2022/05/23 06:35:40;;;;;;;0.60;0.60;;;;;;;8.36;40.46;98111.31;4988677;28;20052;-87
2022/05/23 06:38:08;;;;;;;0.50;0.50;;;;;;;8.03;40.28;98121.13;4994541;28;20066;-85
2022/05/23 06:40:50;;;;;;;0.70;0.70;;;;;;;8.07;40.68;98116.84;4973866;28;20046;-87
2022/05/23 06:43:38;;;;;;;0.70;0.70;;;;;;;8.20;40.57;98113.81;4983129;28;20497;-86
2022/05/23 06:46:21;;;;;;;0.70;0.70;;;;;;;8.45;40.25;98110.59;4984458;28;20184;-86
2022/05/23 06:49:06;;;;;;;0.70;0.70;;;;;;;8.56;39.74;98094.56;4997355;28;20106;-84
2022/05/23 06:51:59;;;;;;;0.68;0.68;;;;;;;8.56;39.97;98110.72;4958361;28;20083;-85
2022/05/23 06:54:36;;;;;;;0.45;0.45;;;;;;;8.37;40.00;98107.53;4954022;28;20059;-84
2022/05/23 06:57:11;;;;;;;0.70;0.70;;;;;;;8.38;40.23;98104.59;4975694;28;20059;-84
2022/05/23 06:59:38;;;;;;;0.70;0.70;;;;;;;8.36;40.27;98104.03;4957421;28;20062;-84
2022/05/23 07:02:09;;;;;;;0.70;0.70;;;;;;;8.49;40.11;98100.19;4949761;28;20053;-83
2022/05/23 07:14:20;;;;;;;0.60;0.60;;;;;;;9.25;38.62;98069.63;4909023;29;20415;-83
2022/05/23 07:16:50;;;;;;;0.50;0.50;;;;;;;9.19;39.11;98076.88;4928589;29;20149;-84
2022/05/23 07:19:26;;;;;;;0.60;0.60;;;;;;;9.51;38.75;98081.38;4944782;29;20050;-85
2022/05/23 07:22:02;;;;;;;0.60;0.60;;;;;;;9.36;38.87;98060.53;4909703;29;20060;-85
2022/05/23 07:24:41;;;;;;;0.60;0.60;;;;;;;9.24;38.45;98076.91;4926947;29;20056;-87
2022/05/23 07:27:12;;;;;;;0.50;0.50;;;;;;;9.19;39.08;98082.25;4895011;29;20180;-86
2022/05/23 07:29:42;;;;;;;0.60;0.60;;;;;;;9.35;38.82;98074.28;4929944;29;20083;-85
2022/05/23 07:32:15;;;;;;;0.60;0.60;;;;;;;9.29;38.22;98073.41;4920081;29;20503;-86
2022/05/23 07:34:44;;;;;;;0.70;0.70;;;;;;;9.48;38.03;98076.50;4918205;29;20107;-85
2022/05/23 07:37:11;;;;;;;0.60;0.60;;;;;;;9.69;37.70;98070.16;4930366;29;20474;-86
2022/05/23 07:39:42;;;;;;;0.60;0.60;;;;;;;9.68;37.34;98063.16;4897358;29;20208;-87
2022/05/23 07:42:33;;;;;;;0.70;0.70;;;;;;;9.69;37.77;98053.19;4957131;28;20426;-86
2022/05/23 07:45:05;;;;;;;0.70;0.70;;;;;;;9.94;37.29;98064.09;4954308;28;20145;-90
2022/05/23 07:47:34;;;;;;;0.75;0.75;;;;;;;10.30;37.52;98066.94;4958472;28;20477;-92
2022/05/23 07:50:21;;;;;;;0.70;0.70;;;;;;;10.93;36.89;98068.66;4973520;28;20103;-86
2022/05/23 08:01:14;;;;;;;0.80;0.80;;;;;;;11.34;34.71;98034.31;4976408;28;20101;-82
2022/05/23 08:03:52;;;;;;;0.70;0.70;;;;;;;11.48;34.57;98043.50;4967755;28;20058;-88
2022/05/23 08:06:33;;;;;;;0.70;0.70;;;;;;;11.52;34.16;98030.25;4968255;28;20061;-87
2022/05/23 08:09:01;;;;;;;0.80;0.80;;;;;;;11.54;34.00;98049.69;4943812;28;20608;-87
2022/05/23 08:11:28;;;;;;;0.80;0.80;;;;;;;11.35;34.05;98024.34;4969570;28;20053;-87
2022/05/23 08:14:16;;;;;;;0.75;0.75;;;;;;;11.01;34.25;98041.94;4969132;28;20119;-87
2022/05/23 08:17:07;;;;;;;0.77;0.77;;;;;;;10.80;35.12;98033.03;4954786;28;20137;-87
2022/05/23 08:19:39;;;;;;;0.70;0.70;;;;;;;11.17;34.43;98034.63;4951646;28;20126;-88
2022/05/23 08:22:19;;;;;;;0.70;0.70;;;;;;;11.36;34.32;98031.34;4958457;28;20218;-87
2022/05/23 08:25:09;;;;;;;0.70;0.70;;;;;;;11.90;33.26;98034.22;4983936;28;20582;-86
2022/05/23 08:27:40;;;;;;;0.70;0.70;;;;;;;12.29;32.98;98032.69;4954073;28;20066;-93
2022/05/23 08:30:09;;;;;;;0.80;0.80;;;;;;;12.58;32.63;98024.63;4951471;28;20133;-86
2022/05/23 08:32:37;;;;;;;0.80;0.80;;;;;;;12.66;31.77;98012.41;4965215;28;20636;-86
2022/05/23 08:35:13;;;;;;;0.80;0.80;;;;;;;12.61;31.68;98032.22;4962684;28;20628;-88
2022/05/23 08:37:43;;;;;;;0.80;0.80;;;;;;;12.54;31.68;98008.16;4912843;28;1213819;-88
2022/05/23 08:40:19;;;;;;;0.77;0.77;;;;;;;12.47;31.55;97999.53;4955415;28;20544;-86
2022/05/23 08:42:57;;;;;;;0.80;0.80;;;;;;;12.69;31.12;98007.25;4940007;28;20058;-87
2022/05/23 08:45:35;;;;;;;0.82;0.82;;;;;;;12.67;31.45;98005.91;4955496;28;20046;-87
2022/05/23 08:48:31;;;;;;;0.80;0.80;;;;;;;13.23;30.33;98008.13;4945632;28;20058;-87
2022/05/23 08:51:18;;;;;;;0.80;0.80;;;;;;;13.58;30.43;97998.84;4954031;28;20089;-87
2022/05/23 08:54:32;;;;;;;0.85;0.85;;;;;;;14.03;29.37;97995.88;4985739;28;20070;-88
2022/05/23 08:57:50;;;;;;;0.80;0.80;;;;;;;14.71;27.98;98009.03;4975136;28;20129;-88
2022/05/23 09:00:24;;;;;;;0.80;0.80;;;;;;;14.94;28.18;98001.06;4919298;29;20115;-87
2022/05/23 09:03:03;;;;;;;0.80;0.80;;;;;;;14.82;27.74;97996.09;4950279;28;20127;-88
2022/05/23 09:05:40;;;;;;;0.80;0.80;;;;;;;15.46;28.10;97999.03;4935646;29;20214;-87
2022/05/23 09:08:30;;;;;;;0.80;0.80;;;;;;;15.89;27.85;98000.69;4937655;29;20199;-89
2022/05/23 09:11:35;;;;;;;0.80;0.80;;;;;;;16.49;27.05;98000.47;4951132;29;20051;-88
2022/05/23 09:14:04;;;;;;;0.80;0.80;;;;;;;17.38;26.08;98008.97;4889305;29;20056;-88
2022/05/23 09:16:40;;;;;;;0.70;0.70;;;;;;;17.59;24.85;97996.38;4901926;29;20056;-87
2022/05/23 09:19:16;;;;;;;0.80;0.80;;;;;;;17.91;25.24;97995.22;4865784;29;20135;-86
2022/05/23 09:24:42;;;;;;;0.70;0.70;;;;;;;16.39;25.67;98006.16;4878541;29;20056;-87
2022/05/23 09:27:25;;;;;;;0.70;0.70;;;;;;;15.92;25.91;97995.44;4877961;29;20448;-87
2022/05/23 09:29:54;;;;;;;0.77;0.77;;;;;;;16.19;26.04;98015.56;4877613;29;20535;-86
2022/05/23 09:32:45;;;;;;;0.70;0.70;;;;;;;16.31;26.19;97998.72;4878008;29;20170;-87
2022/05/23 09:35:23;;;;;;;0.70;0.70;;;;;;;16.80;25.54;97999.78;4861998;29;20447;-88
2022/05/23 09:38:29;;;;;;;0.70;0.70;;;;;;;16.31;25.86;97990.56;4878761;29;20531;-87
2022/05/23 09:47:44;;;;;;;0.80;0.80;;;;;;;17.22;26.47;97989.47;4904811;29;20066;-87
2022/05/23 09:50:36;;;;;;;0.70;0.70;;;;;;;18.43;24.70;97983.56;4976637;28;20113;-85
2022/05/23 09:53:33;;;;;;;0.70;0.70;;;;;;;19.18;23.63;97983.38;4972988;28;20049;-86
2022/05/23 09:56:20;;;;;;;;;;;;;;;19.09;23.45;97977.09;5000465;28;20050;-85
2022/05/23 09:58:47;;;;;;;0.80;0.80;;;;;;;18.24;23.44;97975.69;5009078;28;19925;-85
2022/05/23 10:01:28;;;;;;;0.80;0.80;;;;;;;17.69;23.82;97976.97;4656474;28;9999940;-85
2022/05/23 10:03:56;;;;;;;0.70;0.70;;;;;;;17.98;24.18;97984.66;5002296;28;20042;-86
2022/05/23 10:06:38;;;;;;;0.80;0.80;;;;;;;17.60;24.01;97986.25;4984325;28;20053;-84
2022/05/23 10:09:08;;;;;;;0.70;0.70;;;;;;;17.84;24.44;97970.31;4990101;28;20475;-85
2022/05/23 10:12:08;;;;;;;0.70;0.70;;;;;;;18.15;22.80;97967.50;4992583;28;20448;-86
2022/05/23 10:14:47;;;;;;;0.80;0.80;;;;;;;18.10;23.06;97964.91;4982716;28;20050;-85
2022/05/23 10:17:29;;;;;;;0.80;0.80;;;;;;;18.13;23.57;97963.50;4976329;28;20053;-86
2022/05/23 10:20:23;;;;;;;0.70;0.70;;;;;;;18.35;23.35;97965.25;4974771;28;20575;-85
2022/05/23 10:23:04;;;;;;;0.80;0.80;;;;;;;18.91;23.38;97946.28;4993264;28;20532;-86
2022/05/23 10:25:41;;;;;;;0.80;0.80;;;;;;;19.74;22.19;97945.81;4995094;28;20050;-86
2022/05/23 10:28:14;;;;;;;0.70;0.70;;;;;;;19.18;22.56;97954.09;5006221;28;20506;-89
2022/05/23 10:30:55;;;;;;;0.70;0.70;;;;;;;19.94;22.48;97946.22;4975199;28;20485;-88
2022/05/23 10:33:24;;;;;;;0.70;0.70;;;;;;;20.27;21.49;97946.28;4987414;28;20425;-85
2022/05/23 10:36:09;;;;;;;0.77;0.77;;;;;;;19.31;22.63;97957.75;5001854;28;20510;-84
2022/05/23 10:42:07;;;;;;;0.70;0.70;;;;;;;18.56;23.32;97962.69;4991622;28;20056;-86
2022/05/23 10:44:55;;;;;;;0.80;0.80;;;;;;;19.15;22.61;97973.09;4999175;28;20161;-86
2022/05/23 10:47:41;;;;;;;0.80;0.80;;;;;;;19.77;22.07;97958.84;4995074;28;20057;-87
2022/05/23 10:50:25;;;;;;;0.80;0.80;;;;;;;20.52;21.02;97958.19;5011916;28;20049;-87
2022/05/23 10:53:01;;;;;;;;;;;;;;;20.57;21.55;97960.75;5010355;28;20417;-84
2022/05/23 10:55:46;;;;;;;;;;;;;;;20.71;21.47;97955.81;4996230;28;19925;-87
2022/05/23 10:58:56;;;;;;;0.80;0.80;;;;;;;18.95;22.67;97950.78;4994894;28;20028;-85
2022/05/23 11:02:00;;;;;;;0.80;0.80;;;;;;;20.12;21.74;97958.66;4952017;29;20518;-86
2022/05/23 11:04:45;;;;;;;0.80;0.80;;;;;;;20.71;21.04;97954.97;4947347;28;20048;-87
2022/05/23 11:07:35;;;;;;;0.70;0.70;;;;;;;19.43;22.13;97944.19;4956660;28;20055;-87
2022/05/23 11:10:25;;;;;;;0.73;0.73;;;;;;;20.49;21.78;97951.44;4966717;28;20058;-89
2022/05/23 11:13:29;;;;;;;0.85;0.85;;;;;;;21.62;20.25;97950.31;4953036;28;20086;-85
2022/05/23 11:16:05;;;;;;;0.88;0.88;;;;;;;20.31;21.11;97960.94;4946802;29;20447;-87
2022/05/23 11:18:45;;;;;;;0.80;0.80;;;;;;;20.84;20.92;97959.38;4941733;29;20063;-87
2022/05/23 11:21:36;;;;;;;0.80;0.80;;;;;;;21.77;20.57;97951.53;4932213;29;20058;-86
2022/05/23 11:24:37;;;;;;;0.70;0.70;;;;;;;22.18;19.84;97948.84;4945065;28;20051;-87
2022/05/23 11:35:42;;;;;;;0.60;0.60;;;;;;;20.07;21.22;97948.69;4938289;29;20130;-87
2022/05/23 11:38:11;;;;;;;0.80;0.80;;;;;;;21.49;20.06;97943.19;4987042;28;20061;-87
2022/05/23 11:41:00;;;;;;;0.80;0.80;;;;;;;21.55;19.22;97946.53;4993115;28;20047;-87
2022/05/23 11:43:28;;;;;;;0.70;0.70;;;;;;;21.26;19.60;97933.75;5001066;28;20050;-86
2022/05/23 11:46:04;;;;;;;0.60;0.60;;;;;;;21.58;19.83;97934.84;4989979;28;20104;-87
2022/05/23 11:48:41;;;;;;;0.30;0.30;;;;;;;20.30;20.65;97948.38;4990276;28;20054;-86
2022/05/23 11:51:12;;;;;;;0.80;0.80;;;;;;;21.95;19.56;97954.88;4996697;28;20047;-87
2022/05/23 11:53:54;;;;;;;0.70;0.70;;;;;;;22.70;18.82;97946.09;5002993;28;20054;-86
2022/05/23 11:56:37;;;;;;;0.70;0.70;;;;;;;23.26;18.44;97941.72;4997159;28;20051;-87
2022/05/23 11:59:10;;;;;;;0.80;0.80;;;;;;;22.57;18.92;97941.00;5007118;28;20050;-87
2022/05/23 12:01:38;;;;;;;0.70;0.70;;;;;;;23.68;18.63;97938.44;4999663;28;20049;-88
2022/05/23 12:04:06;;;;;;;0.70;0.70;;;;;;;24.01;17.96;97936.06;4999376;28;20046;-88
2022/05/23 12:06:41;;;;;;;0.80;0.80;;;;;;;23.57;18.00;97940.91;5002759;28;20050;-87
2022/05/23 12:09:11;;;;;;;0.70;0.70;;;;;;;23.41;17.87;97945.63;4993921;28;20057;-87
2022/05/23 12:11:44;;;;;;;0.80;0.80;;;;;;;22.79;18.32;97929.44;5014823;28;20434;-86
2022/05/23 12:14:11;;;;;;;0.80;0.80;;;;;;;22.26;18.70;97931.50;5005273;28;20058;-86
2022/05/23 12:16:43;;;;;;;0.80;0.80;;;;;;;22.00;18.98;97946.41;4996163;28;20053;-87
2022/05/23 12:19:19;;;;;;;0.80;0.80;;;;;;;21.98;19.01;97945.13;5006528;28;20384;-85
2022/05/23 12:21:50;;;;;;;0.90;0.90;;;;;;;22.93;18.25;97949.06;4995796;28;20089;-85
2022/05/23 12:24:23;;;;;;;0.80;0.80;;;;;;;24.64;17.37;97939.81;4992979;28;20060;-86
2022/05/23 12:27:28;;;;;;;0.80;0.80;;;;;;;25.57;17.20;97960.81;5011224;28;20067;-87
2022/05/23 12:30:17;;;;;;;0.80;0.80;;;;;;;23.80;18.03;97946.59;5002713;28;20054;-86
2022/05/23 12:32:58;;;;;;;0.47;0.47;;;;;;;22.74;18.68;97951.72;4977390;28;20055;-87
2022/05/23 12:35:33;;;;;;;0.80;0.80;;;;;;;23.05;18.28;97940.00;5007552;28;20058;-86
2022/05/23 12:38:05;;;;;;;0.70;0.70;;;;;;;24.27;17.52;97953.16;4999419;28;20070;-86
2022/05/23 12:40:54;;;;;;;0.70;0.70;;;;;;;24.98;16.56;97949.13;5010393;28;20077;-86
2022/05/23 12:43:22;;;;;;;0.70;0.70;;;;;;;24.49;16.97;97940.66;4993959;28;20054;-87
2022/05/23 12:45:52;;;;;;;0.70;0.70;;;;;;;24.56;17.10;97930.59;5009700;28;20140;-87
2022/05/23 12:48:44;;;;;;;0.70;0.70;;;;;;;24.82;16.99;97946.47;4991581;28;20168;-87
2022/05/23 12:51:32;;;;;;;0.60;0.60;;;;;;;25.88;16.28;97942.41;5005277;28;20190;-86
2022/05/23 12:54:19;;;;;;;0.60;0.60;;;;;;;25.93;15.48;97931.06;4995564;28;20499;-87
2022/05/23 12:57:24;;;;;;;0.60;0.60;;;;;;;25.83;14.86;97948.25;5000591;28;20431;-85
2022/05/23 13:00:00;;;;;;;0.70;0.70;;;;;;;26.48;14.68;97936.13;5004017;28;20049;-87
2022/05/23 13:02:37;;;;;;;0.60;0.60;;;;;;;27.90;14.16;97937.97;4997333;28;20050;-86
2022/05/23 13:05:13;;;;;;;0.60;0.60;;;;;;;27.84;14.06;97930.03;5003325;28;20064;-86
2022/05/23 13:08:03;;;;;;;0.60;0.60;;;;;;;26.87;13.83;97938.59;5012028;28;20049;-86
2022/05/23 13:10:34;;;;;;;0.60;0.60;;;;;;;26.16;13.97;97925.44;4992192;28;20042;-85
2022/05/23 13:13:20;;;;;;;0.60;0.60;;;;;;;25.74;14.27;97934.66;5017516;28;20057;-86
2022/05/23 13:15:49;;;;;;;0.60;0.60;;;;;;;25.74;14.17;97926.38;4990343;28;20050;-85
2022/05/23 13:23:59;;;;;;;0.60;0.60;;;;;;;24.99;14.36;97909.34;5003270;28;20092;-86
2022/05/23 13:26:28;;;;;;;0.60;0.60;;;;;;;24.50;15.23;97926.50;5005443;28;20052;-88
2022/05/23 13:29:12;;;;;;;0.65;0.65;;;;;;;26.22;14.10;97914.84;4996381;28;20402;-90
2022/05/23 13:31:39;;;;;;;0.60;0.60;;;;;;;25.81;14.24;97915.44;4990364;28;20050;-91
2022/05/23 13:34:11;;;;;;;0.50;0.50;;;;;;;26.24;14.26;97895.91;5010876;28;20073;-86